Time;durP1;ratioP1;P1;durP2;ratioP2;P2;SDS_P1;SDS_P2;PMS_P1;PMS_P2;Temp;Humidity;BMP_temperature;BMP_pressure;BME280_temperature;BME280_humidity;BME280_pressure;Samples;Min_cycle;Max_cycle;Signal;HPM_P1;HPM_P2
2022/06/14 00:03:06;;;;;;;5.03;1.80;;;13.20;99.90;;;;;;5093440;28;20186;-66
2022/06/14 00:05:34;;;;;;;2.03;1.83;;;13.40;99.90;;;;;;5093142;28;20176;-66
2022/06/14 00:08:02;;;;;;;3.33;1.70;;;13.80;99.90;;;;;;5093039;28;20586;-65
2022/06/14 00:10:30;;;;;;;2.43;1.93;;;14.10;99.90;;;;;;5075495;28;20270;-66
2022/06/14 00:12:58;;;;;;;2.70;1.90;;;14.30;99.90;;;;;;5093088;28;20215;-66
2022/06/14 00:15:26;;;;;;;4.00;2.40;;;14.50;99.90;;;;;;5092941;28;20245;-66
2022/06/14 00:17:54;;;;;;;4.37;3.03;;;14.30;99.90;;;;;;5086546;28;20183;-66
2022/06/14 00:20:22;;;;;;;4.87;3.30;;;15.00;99.90;;;;;;5055756;28;20184;-66
2022/06/14 00:22:51;;;;;;;4.80;3.10;;;15.20;99.90;;;;;;5086221;28;20218;-65
2022/06/14 00:25:26;;;;;;;4.23;2.77;;;15.10;99.90;;;;;;5092856;28;20331;-65
2022/06/14 00:27:54;;;;;;;6.03;3.57;;;15.30;99.90;;;;;;5092763;28;20179;-63
2022/06/14 00:30:24;;;;;;;6.50;4.30;;;15.40;99.90;;;;;;5092856;28;20185;-65
2022/06/14 00:32:57;;;;;;;8.00;4.03;;;15.60;99.90;;;;;;5090219;28;20229;-65
2022/06/14 00:35:26;;;;;;;6.87;4.30;;;15.90;99.90;;;;;;5090621;28;20191;-64
2022/06/14 00:37:54;;;;;;;8.67;4.27;;;16.10;99.90;;;;;;5085150;28;20563;-65
2022/06/14 00:40:25;;;;;;;10.87;4.60;;;16.10;99.90;;;;;;5089068;28;20271;-67
2022/06/14 00:42:53;;;;;;;9.53;4.90;;;16.40;99.90;;;;;;5088600;28;20267;-65
2022/06/14 00:45:24;;;;;;;11.17;4.07;;;16.60;99.90;;;;;;5079080;28;20188;-66
2022/06/14 00:48:20;;;;;;;10.53;3.10;;;17.10;99.90;;;;;;5092309;28;20185;-66
2022/06/14 00:51:20;;;;;;;4.37;2.70;;;17.40;99.90;;;;;;5092309;28;20619;-66
2022/06/14 00:54:33;;;;;;;4.63;2.10;;;17.10;99.90;;;;;;5073998;28;20298;-65
2022/06/14 00:57:18;;;;;;;4.43;2.03;;;17.40;99.90;;;;;;5034717;28;20194;-65
2022/06/14 00:59:48;;;;;;;5.13;2.60;;;17.40;99.90;;;;;;5071992;28;20653;-65
2022/06/14 01:02:27;;;;;;;6.23;2.10;;;17.20;99.90;;;;;;5072129;28;20176;-65
2022/06/14 01:04:56;;;;;;;4.77;1.67;;;17.60;99.90;;;;;;5071884;28;20175;-67
2022/06/14 01:07:42;;;;;;;5.83;2.23;;;17.40;99.90;;;;;;5077393;28;20206;-66
2022/06/14 01:10:15;;;;;;;3.93;1.50;;;17.80;99.90;;;;;;5092359;28;20227;-66
2022/06/14 01:12:47;;;;;;;5.00;2.10;;;17.80;99.90;;;;;;5092112;28;20211;-66
2022/06/14 01:15:22;;;;;;;3.90;2.17;;;17.60;99.90;;;;;;5074109;28;20593;-65
2022/06/14 01:18:03;;;;;;;3.33;2.87;;;17.90;99.90;;;;;;5092000;28;20276;-66
2022/06/14 01:20:32;;;;;;;4.73;3.43;;;17.60;99.90;;;;;;5074139;28;20187;-66
2022/06/14 01:23:00;;;;;;;6.13;3.23;;;18.10;99.90;;;;;;5092124;28;20250;-66
2022/06/14 01:25:34;;;;;;;4.70;2.87;;;18.10;99.90;;;;;;5091635;28;20297;-66
2022/06/14 01:28:03;;;;;;;4.00;2.60;;;18.40;99.90;;;;;;5091828;28;20192;-66
2022/06/14 01:30:35;;;;;;;4.23;2.93;;;18.80;99.90;;;;;;5091842;28;20175;-67
2022/06/14 01:33:08;;;;;;;6.30;3.30;;;19.00;99.90;;;;;;5091928;28;20267;-66
2022/06/14 01:35:39;;;;;;;7.93;4.20;;;19.00;99.90;;;;;;5081453;28;20237;-68
2022/06/14 01:38:10;;;;;;;5.37;3.50;;;18.40;99.90;;;;;;5091212;28;20178;-67
2022/06/14 01:41:03;;;;;;;8.97;4.80;;;18.00;99.90;;;;;;5091718;28;20211;-67
2022/06/14 01:43:37;;;;;;;12.13;8.43;;;17.60;99.90;;;;;;5091934;28;20171;-68
2022/06/14 01:46:16;;;;;;;9.13;5.70;;;17.70;99.90;;;;;;5091073;28;20511;-66
2022/06/14 01:52:27;;;;;;;8.77;5.17;;;18.60;99.90;;;;;;5091182;28;20220;-67
2022/06/14 01:54:57;;;;;;;11.97;5.70;;;18.60;99.90;;;;;;5090939;28;20297;-67
2022/06/14 01:57:27;;;;;;;9.23;5.00;;;17.90;99.90;;;;;;5074939;28;20178;-66
2022/06/14 02:00:06;;;;;;;8.90;4.57;;;18.30;99.90;;;;;;5091212;28;20174;-67
2022/06/14 02:06:36;;;;;;;8.53;4.07;;;18.60;99.90;;;;;;4991689;28;20255;-66
2022/06/14 02:09:12;;;;;;;6.67;4.27;;;18.40;99.90;;;;;;5060398;28;20195;-67
2022/06/14 02:11:39;;;;;;;12.03;4.63;;;19.00;99.90;;;;;;5089740;28;20645;-67
2022/06/14 02:14:17;;;;;;;9.90;4.57;;;19.40;99.90;;;;;;5091551;28;20664;-66
2022/06/14 02:16:52;;;;;;;15.90;4.40;;;19.30;99.90;;;;;;5089067;28;20171;-66
2022/06/14 02:19:34;;;;;;;10.27;4.80;;;19.80;99.90;;;;;;5071521;28;20553;-66
2022/06/14 02:22:13;;;;;;;11.20;5.27;;;19.80;99.90;;;;;;5071239;28;20180;-66
2022/06/14 02:24:47;;;;;;;11.63;4.20;;;19.70;99.90;;;;;;5071268;28;20186;-66
2022/06/14 02:27:41;;;;;;;7.10;3.37;;;19.90;99.90;;;;;;5071170;28;20309;-66
2022/06/14 02:30:09;;;;;;;6.80;2.80;;;19.20;99.90;;;;;;5083716;28;20182;-66
2022/06/14 02:32:55;;;;;;;6.57;3.03;;;19.00;99.90;;;;;;5073330;28;20611;-66
2022/06/14 02:35:29;;;;;;;9.63;4.40;;;18.00;99.90;;;;;;5091547;28;20171;-66
2022/06/14 02:38:05;;;;;;;13.13;4.27;;;18.30;99.90;;;;;;5073106;28;20184;-67
2022/06/14 02:40:41;;;;;;;12.97;4.77;;;18.40;99.90;;;;;;5091507;28;20621;-67
2022/06/14 02:43:37;;;;;;;7.60;3.70;;;18.80;99.90;;;;;;5091354;28;20232;-66
2022/06/14 02:46:10;;;;;;;10.47;4.23;;;19.70;99.90;;;;;;5054982;28;20244;-66
2022/06/14 02:48:48;;;;;;;14.93;7.20;;;19.70;99.90;;;;;;5091117;28;20182;-67
2022/06/14 02:51:21;;;;;;;6.93;4.20;;;20.10;99.90;;;;;;5091292;28;20231;-66
2022/06/14 02:54:06;;;;;;;15.60;7.30;;;19.90;99.90;;;;;;5090917;28;20199;-66
2022/06/14 02:56:41;;;;;;;6.77;3.40;;;20.20;99.90;;;;;;5091196;28;20709;-66
2022/06/14 02:59:23;;;;;;;5.73;2.63;;;20.50;99.90;;;;;;5075183;28;20186;-67
2022/06/14 03:02:19;;;;;;;8.87;3.90;;;19.90;99.90;;;;;;5094746;28;20728;-67
2022/06/14 03:04:57;;;;;;;5.47;3.10;;;19.30;99.90;;;;;;5085757;28;20191;-67
2022/06/14 03:07:54;;;;;;;4.97;2.80;;;19.20;99.90;;;;;;5094598;28;20262;-66
2022/06/14 03:10:21;;;;;;;3.90;2.83;;;19.60;99.90;;;;;;5094178;28;20186;-67
2022/06/14 03:13:10;;;;;;;8.13;2.80;;;20.20;99.90;;;;;;5093654;28;20692;-67
2022/06/14 03:16:09;;;;;;;13.70;3.10;;;20.70;99.90;;;;;;5094418;28;20186;-67
2022/06/14 03:18:36;;;;;;;15.60;3.00;;;19.60;99.90;;;;;;5081256;28;20191;-68
2022/06/14 03:21:10;;;;;;;9.40;2.87;;;18.80;99.90;;;;;;5094402;28;20248;-67
2022/06/14 03:24:06;;;;;;;8.23;3.00;;;18.40;99.90;;;;;;5094132;28;20187;-67
2022/06/14 03:26:56;;;;;;;4.93;2.63;;;19.20;99.90;;;;;;5077176;28;20233;-68
2022/06/14 03:29:52;;;;;;;6.07;2.17;;;19.70;99.90;;;;;;5092928;28;20649;-67
2022/06/14 03:32:22;;;;;;;3.87;1.53;;;19.50;99.90;;;;;;5082998;28;20736;-67
2022/06/14 03:35:14;;;;;;;5.13;2.33;;;20.20;99.90;;;;;;5093855;28;20651;-66
2022/06/14 03:37:41;;;;;;;3.87;2.20;;;19.50;99.90;;;;;;5073792;28;20174;-66
2022/06/14 03:40:14;;;;;;;6.90;2.30;;;20.10;99.90;;;;;;5073483;28;20180;-66
2022/06/14 03:42:42;;;;;;;3.67;1.40;;;20.40;99.90;;;;;;5073714;28;20728;-66
2022/06/14 03:45:13;;;;;;;3.50;1.60;;;20.30;99.90;;;;;;5055362;28;20261;-67
2022/06/14 03:47:40;;;;;;;3.77;1.63;;;20.30;99.90;;;;;;5075344;28;20163;-66
2022/06/14 03:50:14;;;;;;;5.20;1.57;;;19.50;99.90;;;;;;5092958;28;20541;-67
2022/06/14 03:53:22;;;;;;;2.87;1.73;;;20.00;99.90;;;;;;5081829;28;20221;-67
2022/06/14 03:56:12;;;;;;;3.73;1.80;;;20.50;99.90;;;;;;5027661;28;20198;-67
2022/06/14 03:59:15;;;;;;;3.53;1.83;;;20.20;99.90;;;;;;5075464;28;20623;-67
2022/06/14 04:01:50;;;;;;;4.07;1.90;;;20.60;99.90;;;;;;4994971;28;20675;-66
2022/06/14 04:04:35;;;;;;;2.23;1.20;;;20.90;99.90;;;;;;5073582;28;20242;-66
2022/06/14 04:07:19;;;;;;;7.23;2.50;;;20.50;99.90;;;;;;5075043;28;20210;-67
2022/06/14 04:09:53;;;;;;;2.77;1.23;;;20.80;99.90;;;;;;5092188;28;20830;-66
2022/06/14 04:12:30;;;;;;;3.17;1.13;;;21.00;99.90;;;;;;5092885;28;20670;-66
2022/06/14 04:15:12;;;;;;;2.30;1.07;;;20.50;99.90;;;;;;5092825;28;20194;-66
2022/06/14 04:17:57;;;;;;;4.30;0.90;;;20.70;99.90;;;;;;5093032;28;20186;-66
2022/06/14 04:20:43;;;;;;;5.10;0.97;;;20.90;99.90;;;;;;5076943;28;20704;-66
2022/06/14 04:23:21;;;;;;;6.60;4.03;;;20.70;99.90;;;;;;5092966;28;20641;-66
2022/06/14 04:26:01;;;;;;;16.10;6.30;;;20.30;99.90;;;;;;5092505;28;20250;-66
2022/06/14 04:28:40;;;;;;;2.93;1.77;;;20.20;99.90;;;;;;5092681;28;20187;-66
2022/06/14 04:31:28;;;;;;;4.17;1.30;;;19.90;99.90;;;;;;5077535;28;20186;-66
2022/06/14 04:34:16;;;;;;;4.13;0.80;;;19.80;99.90;;;;;;5073719;28;20219;-65
2022/06/14 04:37:02;;;;;;;1.33;0.70;;;20.30;99.90;;;;;;5092768;28;20182;-67
2022/06/14 04:39:38;;;;;;;5.17;3.70;;;20.20;99.90;;;;;;5092120;28;20555;-66
2022/06/14 04:42:23;;;;;;;9.23;6.13;;;19.90;99.90;;;;;;5092347;28;20178;-66
2022/06/14 04:45:10;;;;;;;3.37;1.27;;;20.10;99.90;;;;;;5092003;28;20270;-66
2022/06/14 04:47:46;;;;;;;3.50;0.80;;;20.50;99.90;;;;;;5092217;28;20175;-66
2022/06/14 04:50:13;;;;;;;4.40;1.67;;;20.40;99.90;;;;;;5073500;28;20190;-66
2022/06/14 04:52:55;;;;;;;2.50;1.30;;;20.60;99.90;;;;;;5091660;28;20290;-66
2022/06/14 04:55:50;;;;;;;1.20;0.90;;;20.50;99.90;;;;;;5091976;28;20184;-66
2022/06/14 04:58:33;;;;;;;8.20;1.77;;;20.90;99.90;;;;;;5092015;28;20193;-67
2022/06/14 05:01:07;;;;;;;5.33;1.57;;;20.80;99.90;;;;;;5091635;28;20184;-67
2022/06/14 05:03:44;;;;;;;3.57;1.00;;;20.40;99.90;;;;;;5091801;28;20200;-67
2022/06/14 05:06:37;;;;;;;1.30;0.70;;;20.40;99.90;;;;;;5091744;28;20187;-67
2022/06/14 05:09:14;;;;;;;3.23;1.60;;;20.80;99.90;;;;;;5091443;28;20179;-66
2022/06/14 05:12:10;;;;;;;3.43;2.40;;;21.00;99.90;;;;;;5092046;28;20202;-67
2022/06/14 05:15:14;;;;;;;8.30;5.57;;;20.80;99.90;;;;;;5091803;28;20237;-68
2022/06/14 05:18:07;;;;;;;2.47;1.23;;;20.40;99.90;;;;;;5012672;28;20572;-67
2022/06/14 05:20:56;;;;;;;7.30;4.63;;;20.10;99.90;;;;;;5074646;28;20181;-67
2022/06/14 05:23:49;;;;;;;1.83;1.30;;;20.40;99.90;;;;;;5091307;28;20547;-66
2022/06/14 05:26:40;;;;;;;2.67;1.20;;;20.20;99.90;;;;;;5080793;28;20230;-66
2022/06/14 05:29:22;;;;;;;2.17;1.20;;;19.50;99.90;;;;;;5071607;28;20230;-66
2022/06/14 05:32:24;;;;;;;3.37;1.37;;;19.30;99.90;;;;;;5071489;28;20183;-66
2022/06/14 05:35:03;;;;;;;2.90;1.43;;;18.80;99.90;;;;;;5071706;28;20171;-67
2022/06/14 05:38:00;;;;;;;3.30;1.40;;;18.00;99.90;;;;;;5089406;28;20216;-65
2022/06/14 05:40:33;;;;;;;3.03;1.10;;;17.60;99.90;;;;;;5091594;28;20586;-66
2022/06/14 05:43:24;;;;;;;6.20;1.87;;;17.20;99.90;;;;;;5091644;28;20263;-67
2022/06/14 05:46:07;;;;;;;3.97;1.67;;;17.00;99.90;;;;;;5091255;28;20392;-65
2022/06/14 05:48:57;;;;;;;43.40;6.13;;;16.80;99.90;;;;;;5090290;28;20189;-65
2022/06/14 05:51:46;;;;;;;29.53;3.50;;;16.50;99.90;;;;;;5091339;28;20853;-66
2022/06/14 05:54:40;;;;;;;7.73;3.87;;;16.40;99.90;;;;;;5090571;28;20598;-66
2022/06/14 05:57:13;;;;;;;20.40;2.20;;;16.30;99.90;;;;;;5073900;28;20191;-65
2022/06/14 05:59:49;;;;;;;6.00;1.70;;;16.20;99.90;;;;;;5091115;28;20243;-65
2022/06/14 06:02:30;;;;;;;4.47;1.33;;;16.10;99.90;;;;;;5091308;28;20263;-65
2022/06/14 06:05:29;;;;;;;2.93;2.10;;;16.00;99.90;;;;;;5072896;28;20183;-66
2022/06/14 06:08:15;;;;;;;1.90;1.43;;;15.80;99.90;;;;;;5090716;28;20216;-66
2022/06/14 06:10:48;;;;;;;3.20;2.07;;;15.70;99.90;;;;;;5091194;28;20187;-65
2022/06/14 06:13:15;;;;;;;5.67;2.17;;;15.60;99.90;;;;;;5091271;28;20207;-65
2022/06/14 06:15:53;;;;;;;8.63;2.00;;;15.50;99.90;;;;;;5091053;28;20258;-66
2022/06/14 06:18:36;;;;;;;3.27;1.97;;;15.40;99.90;;;;;;5091192;28;20262;-65
2022/06/14 06:21:07;;;;;;;1.73;1.30;;;15.30;99.90;;;;;;5091290;28;20659;-65
2022/06/14 06:24:09;;;;;;;6.03;2.03;;;15.20;99.90;;;;;;5090900;28;20180;-65
2022/06/14 06:26:42;;;;;;;7.43;4.10;;;15.10;99.90;;;;;;5053300;28;20238;-65
2022/06/14 06:29:24;;;;;;;22.33;20.03;;;15.00;99.90;;;;;;5091019;28;20236;-65
2022/06/14 06:31:51;;;;;;;5.27;4.53;;;15.10;99.90;;;;;;5091705;28;20214;-65
2022/06/14 06:34:19;;;;;;;37.50;26.17;;;14.90;99.90;;;;;;5094624;28;20205;-66
2022/06/14 06:36:59;;;;;;;28.03;17.97;;;14.60;99.90;;;;;;5095034;28;20195;-65
2022/06/14 06:39:45;;;;;;;18.47;13.33;;;14.40;99.90;;;;;;5094910;28;20227;-65
2022/06/14 06:42:29;;;;;;;168.13;109.63;;;14.20;99.90;;;;;;5076709;28;20573;-65
2022/06/14 06:45:21;;;;;;;33.00;21.33;;;14.00;99.90;;;;;;5094529;28;20270;-66
2022/06/14 06:48:07;;;;;;;17.43;11.13;;;13.70;99.90;;;;;;5076499;28;20726;-65
2022/06/14 06:50:43;;;;;;;14.40;8.37;;;13.50;99.90;;;;;;5089571;28;20185;-65
2022/06/14 06:53:19;;;;;;;12.50;5.20;;;13.30;99.90;;;;;;5086894;28;20218;-65
2022/06/14 06:55:51;;;;;;;5.80;2.70;;;13.10;99.90;;;;;;5094610;28;20175;-65
2022/06/14 06:58:31;;;;;;;4.80;3.10;;;12.90;99.90;;;;;;5094407;28;20655;-65
2022/06/14 07:01:09;;;;;;;5.53;2.93;;;12.70;99.90;;;;;;5094404;28;20210;-65
2022/06/14 07:04:02;;;;;;;8.13;3.43;;;12.50;99.90;;;;;;5094547;28;20652;-65
2022/06/14 07:06:40;;;;;;;3.47;2.80;;;12.40;99.90;;;;;;5056077;28;20201;-65
2022/06/14 07:09:17;;;;;;;11.23;6.53;;;12.30;99.90;;;;;;5094155;28;20280;-66
2022/06/14 07:11:49;;;;;;;5.37;3.57;;;12.20;99.90;;;;;;5076263;28;20232;-66
2022/06/14 07:14:32;;;;;;;7.80;4.03;;;12.10;99.90;;;;;;5094386;28;20242;-66
2022/06/14 07:17:26;;;;;;;10.13;4.97;;;12.10;99.90;;;;;;5095894;28;20238;-66
2022/06/14 07:20:25;;;;;;;13.10;8.00;;;12.00;99.90;;;;;;5077644;28;20600;-66
2022/06/14 07:23:02;;;;;;;8.43;6.73;;;11.80;99.90;;;;;;5094045;28;20213;-66
2022/06/14 07:25:33;;;;;;;15.37;8.57;;;11.70;99.90;;;;;;5093478;28;20296;-66
2022/06/14 07:28:29;;;;;;;7.90;4.97;;;11.60;99.90;;;;;;5094230;28;20184;-66
2022/06/14 07:31:00;;;;;;;6.23;4.07;;;11.50;99.90;;;;;;5061520;28;20196;-65
2022/06/14 07:33:29;;;;;;;6.13;3.63;;;11.40;99.90;;;;;;5082046;28;20220;-66
2022/06/14 07:36:02;;;;;;;6.60;3.57;;;11.40;99.90;;;;;;5090978;28;20264;-66
2022/06/14 07:38:53;;;;;;;7.03;4.70;;;11.30;99.90;;;;;;5066424;28;20193;-64
2022/06/14 07:41:25;;;;;;;6.30;4.60;;;11.20;99.90;;;;;;5068770;28;20188;-64
2022/06/14 07:43:58;;;;;;;7.87;5.80;;;11.20;99.90;;;;;;5075575;28;20250;-65
2022/06/14 07:46:58;;;;;;;7.63;5.27;;;11.10;99.90;;;;;;5082340;28;20225;-64
2022/06/14 07:49:55;;;;;;;10.40;5.50;;;11.00;99.90;;;;;;5092334;28;20181;-65
2022/06/14 07:52:43;;;;;;;14.77;11.27;;;10.90;99.90;;;;;;5080402;28;20585;-65
2022/06/14 07:55:34;;;;;;;29.33;22.13;;;10.80;99.90;;;;;;5081222;28;20244;-64
2022/06/14 07:58:14;;;;;;;15.90;11.73;;;10.70;99.90;;;;;;5078524;28;20177;-64
2022/06/14 08:04:00;;;;;;;11.93;5.07;;;10.60;99.90;;;;;;5093285;28;20192;-64
2022/06/14 08:06:35;;;;;;;10.67;4.77;;;10.50;99.90;;;;;;5086701;28;20177;-66
2022/06/14 08:09:16;;;;;;;13.63;5.27;;;10.40;99.90;;;;;;5092459;28;20657;-64
2022/06/14 08:12:07;;;;;;;8.80;5.63;;;10.40;99.90;;;;;;5092592;28;20180;-65
2022/06/14 08:15:01;;;;;;;13.10;5.67;;;10.30;99.90;;;;;;5070545;28;20203;-65
2022/06/14 08:17:31;;;;;;;8.03;5.03;;;10.20;99.90;;;;;;5089713;28;20183;-65
2022/06/14 08:20:24;;;;;;;9.50;6.27;;;10.20;99.90;;;;;;5091845;28;20195;-65
2022/06/14 08:23:04;;;;;;;10.07;6.87;;;10.10;99.90;;;;;;5072560;28;20339;-65
2022/06/14 08:25:37;;;;;;;14.30;9.07;;;10.00;99.90;;;;;;5083869;28;20223;-65
2022/06/14 08:28:10;;;;;;;9.13;8.00;;;10.00;99.90;;;;;;5092685;28;20711;-64
2022/06/14 08:30:47;;;;;;;11.43;5.90;;;10.00;99.90;;;;;;5092833;28;20180;-65
2022/06/14 08:33:23;;;;;;;10.37;7.10;;;9.90;99.90;;;;;;5092698;28;20208;-64
2022/06/14 08:35:55;;;;;;;12.50;8.27;;;9.90;99.90;;;;;;5092810;28;20525;-65
2022/06/14 08:38:47;;;;;;;9.00;6.27;;;9.80;99.90;;;;;;5057699;28;20189;-65
2022/06/14 08:41:29;;;;;;;11.70;5.73;;;9.80;99.90;;;;;;5055038;28;20560;-64
2022/06/14 08:44:09;;;;;;;10.10;6.63;;;9.70;99.90;;;;;;5072209;28;20229;-64
2022/06/14 08:46:59;;;;;;;9.57;7.03;;;9.70;99.90;;;;;;5072325;28;20183;-65
2022/06/14 08:50:03;;;;;;;11.77;7.10;;;9.60;99.90;;;;;;5072313;28;20210;-65
2022/06/14 08:52:39;;;;;;;14.30;9.10;;;9.50;99.90;;;;;;5072036;28;20207;-65
2022/06/14 08:55:34;;;;;;;15.17;8.13;;;9.50;99.90;;;;;;5071669;28;20603;-65
2022/06/14 08:58:13;;;;;;;11.30;7.67;;;9.40;99.90;;;;;;5071912;28;20843;-65
2022/06/14 09:01:01;;;;;;;12.37;7.47;;;9.30;99.90;;;;;;5071944;28;20180;-65
2022/06/14 09:03:49;;;;;;;14.43;9.10;;;9.20;99.90;;;;;;5072078;28;20251;-64
2022/06/14 09:06:29;;;;;;;14.83;8.63;;;9.20;99.90;;;;;;5077372;28;20184;-64
2022/06/14 09:08:57;;;;;;;14.20;9.07;;;9.20;99.90;;;;;;5074088;28;20710;-66
2022/06/14 09:11:42;;;;;;;16.33;8.23;;;9.20;99.90;;;;;;5078584;28;20263;-67
2022/06/14 09:14:33;;;;;;;23.47;13.40;;;9.10;99.90;;;;;;5071768;28;20281;-64
2022/06/14 09:17:12;;;;;;;28.83;18.07;;;9.10;99.90;;;;;;5073785;28;20686;-65
2022/06/14 09:19:56;;;;;;;19.10;13.30;;;9.10;99.90;;;;;;5091855;28;20186;-66
2022/06/14 09:22:44;;;;;;;16.43;10.07;;;9.00;99.90;;;;;;5091355;28;20172;-65
2022/06/14 09:25:32;;;;;;;23.23;12.83;;;8.90;99.90;;;;;;5070325;28;20195;-66
2022/06/14 09:28:43;;;;;;;58.67;41.20;;;8.80;99.90;;;;;;5071569;28;20676;-65
2022/06/14 09:31:19;;;;;;;25.37;14.87;;;8.80;99.90;;;;;;5079774;28;20182;-65
2022/06/14 09:34:01;;;;;;;15.23;9.57;;;8.70;99.90;;;;;;5083261;28;20212;-65
2022/06/14 09:36:34;;;;;;;10.93;8.17;;;8.60;99.90;;;;;;5053691;28;20262;-65
2022/06/14 09:39:36;;;;;;;14.43;8.67;;;8.60;99.90;;;;;;5062058;28;20176;-66
2022/06/14 09:42:12;;;;;;;14.83;9.07;;;8.60;99.90;;;;;;5081264;28;20194;-65
2022/06/14 09:44:54;;;;;;;16.70;9.27;;;8.50;99.90;;;;;;5082989;28;20619;-65
2022/06/14 09:47:34;;;;;;;20.80;10.30;;;8.50;99.90;;;;;;5082511;28;20254;-66
2022/06/14 09:50:13;;;;;;;17.67;10.17;;;8.50;99.90;;;;;;5082097;28;20658;-66
2022/06/14 09:53:14;;;;;;;41.87;23.90;;;8.40;99.90;;;;;;5083203;28;20195;-66
2022/06/14 09:55:47;;;;;;;18.27;12.80;;;8.40;99.90;;;;;;5067022;28;20237;-66
2022/06/14 09:58:32;;;;;;;24.17;13.87;;;8.30;99.90;;;;;;5082342;28;20661;-66
2022/06/14 10:01:29;;;;;;;25.27;16.80;;;8.30;99.90;;;;;;5080678;28;20172;-66
2022/06/14 10:04:16;;;;;;;24.13;14.93;;;8.30;99.90;;;;;;5086837;28;20200;-67
2022/06/14 10:07:10;;;;;;;23.47;14.57;;;8.20;99.90;;;;;;5081367;28;20191;-66
2022/06/14 10:10:02;;;;;;;20.13;13.20;;;8.10;99.90;;;;;;5093798;28;20179;-65
2022/06/14 10:13:19;;;;;;;18.77;13.10;;;8.10;99.90;;;;;;5090328;28;20668;-66
2022/06/14 10:16:25;;;;;;;27.10;13.80;;;8.00;99.90;;;;;;5021758;28;20188;-66
2022/06/14 10:19:22;;;;;;;20.90;12.77;;;8.00;99.90;;;;;;5057594;28;20275;-66
2022/06/14 10:22:09;;;;;;;24.77;15.40;;;8.00;99.90;;;;;;5076783;28;20177;-67
2022/06/14 10:24:55;;;;;;;19.67;12.20;;;7.90;99.90;;;;;;5076125;28;20175;-66
2022/06/14 10:30:40;;;;;;;17.90;11.77;;;7.70;99.90;;;;;;5076277;28;20287;-66
2022/06/14 10:33:28;;;;;;;15.47;11.03;;;7.70;99.90;;;;;;5076070;28;20203;-66
2022/06/14 10:36:26;;;;;;;20.47;10.67;;;7.70;99.90;;;;;;5076213;28;20211;-66
2022/06/14 10:39:10;;;;;;;17.10;11.03;;;7.60;99.90;;;;;;5085996;28;20191;-66
2022/06/14 10:41:50;;;;;;;23.67;11.97;;;7.60;99.90;;;;;;5083869;28;20629;-66
2022/06/14 10:44:35;;;;;;;16.70;11.03;;;7.60;99.90;;;;;;5086229;28;20180;-66
2022/06/14 10:47:31;;;;;;;18.23;11.07;;;7.70;99.90;;;;;;5068306;28;20203;-66
2022/06/14 10:50:38;;;;;;;17.53;10.70;;;7.70;99.90;;;;;;5092345;28;20273;-66
2022/06/14 10:53:09;;;;;;;16.23;9.83;;;7.60;99.90;;;;;;5095882;28;20320;-67
2022/06/14 10:56:05;;;;;;;20.90;11.23;;;7.50;99.90;;;;;;5096335;28;20621;-66
2022/06/14 10:58:38;;;;;;;17.77;10.10;;;7.50;99.90;;;;;;5096118;28;20184;-67
2022/06/14 11:01:24;;;;;;;16.93;10.93;;;7.40;99.90;;;;;;5096023;28;20191;-67
2022/06/14 11:04:19;;;;;;;14.83;10.40;;;7.30;99.90;;;;;;5095754;28;20178;-67
2022/06/14 11:07:07;;;;;;;15.00;9.43;;;7.30;99.90;;;;;;5095705;28;20594;-67
2022/06/14 11:09:55;;;;;;;15.17;9.93;;;7.30;99.90;;;;;;5095642;28;20180;-67
2022/06/14 11:12:28;;;;;;;16.93;10.10;;;7.20;99.90;;;;;;5077429;28;20233;-66
2022/06/14 11:15:14;;;;;;;14.10;9.60;;;7.20;99.90;;;;;;5077288;28;20202;-67
2022/06/14 11:18:02;;;;;;;14.73;9.83;;;7.10;99.90;;;;;;5071106;28;20191;-67
2022/06/14 11:21:03;;;;;;;16.07;9.03;;;7.10;99.90;;;;;;5083263;28;20194;-65
2022/06/14 11:23:50;;;;;;;17.67;8.83;;;7.10;99.90;;;;;;5085685;28;20180;-65
2022/06/14 11:26:37;;;;;;;15.63;9.00;;;7.00;99.90;;;;;;5067367;28;20216;-65
2022/06/14 11:29:14;;;;;;;14.33;9.00;;;7.00;99.90;;;;;;5095647;28;20171;-65
2022/06/14 11:31:48;;;;;;;13.90;8.97;;;7.00;99.90;;;;;;5095179;28;20170;-65
2022/06/14 11:34:48;;;;;;;13.77;8.57;;;6.90;99.90;;;;;;5095337;28;20239;-66
2022/06/14 11:37:33;;;;;;;12.53;8.77;;;6.90;99.90;;;;;;5077457;28;20266;-65
2022/06/14 11:40:07;;;;;;;13.47;9.07;;;6.80;99.90;;;;;;5095440;28;20287;-66
2022/06/14 11:43:11;;;;;;;16.90;8.13;;;6.80;99.90;;;;;;5095339;28;20175;-66
2022/06/14 11:45:49;;;;;;;11.03;7.50;;;6.80;99.90;;;;;;5095119;28;20201;-66
2022/06/14 11:48:35;;;;;;;13.23;8.37;;;6.70;99.90;;;;;;5095232;28;20171;-66
2022/06/14 11:51:18;;;;;;;13.43;8.27;;;6.70;99.90;;;;;;5095183;28;20229;-66
2022/06/14 11:53:52;;;;;;;15.70;8.50;;;6.70;99.90;;;;;;5094928;28;20573;-67
2022/06/14 11:56:28;;;;;;;16.67;10.37;;;6.70;99.90;;;;;;5095231;28;20251;-67
2022/06/14 11:59:19;;;;;;;13.83;8.73;;;6.70;99.90;;;;;;5095000;28;20262;-67
2022/06/14 12:02:05;;;;;;;17.03;9.83;;;6.70;99.90;;;;;;5095035;28;20175;-66
2022/06/14 12:05:08;;;;;;;17.93;9.70;;;6.60;99.90;;;;;;5094652;28;20193;-66
2022/06/14 12:07:38;;;;;;;14.60;9.60;;;6.50;99.90;;;;;;5094603;28;20249;-66
2022/06/14 12:10:33;;;;;;;13.73;8.97;;;6.50;99.90;;;;;;5094531;28;20186;-66
2022/06/14 12:13:06;;;;;;;15.00;9.07;;;6.50;99.90;;;;;;5093412;28;20290;-66
2022/06/14 12:15:51;;;;;;;16.40;9.10;;;6.50;99.90;;;;;;5093457;28;20186;-66
2022/06/14 12:18:22;;;;;;;13.57;9.10;;;6.40;99.90;;;;;;5094400;28;20648;-67
2022/06/14 12:21:33;;;;;;;17.97;10.23;;;6.30;99.90;;;;;;5094355;28;20172;-66
2022/06/14 12:24:17;;;;;;;12.60;8.93;;;6.30;99.90;;;;;;5078724;28;20191;-65
2022/06/14 12:26:57;;;;;;;15.90;9.27;;;6.40;99.90;;;;;;5093682;28;20227;-66
2022/06/14 12:29:33;;;;;;;19.97;10.20;;;6.30;99.90;;;;;;5096943;28;20191;-66
2022/06/14 12:32:28;;;;;;;20.90;10.20;;;6.30;99.90;;;;;;5079017;28;20555;-66
2022/06/14 12:35:07;;;;;;;19.30;10.23;;;6.30;99.90;;;;;;5093985;28;20199;-65
2022/06/14 12:38:18;;;;;;;16.53;10.20;;;6.20;99.90;;;;;;5094093;28;20178;-66
2022/06/14 12:41:02;;;;;;;20.27;10.47;;;6.20;99.90;;;;;;5021473;28;20209;-66
2022/06/14 12:43:57;;;;;;;20.53;11.23;;;6.20;99.90;;;;;;5073782;28;20176;-66
2022/06/14 12:46:32;;;;;;;22.10;11.07;;;6.20;99.90;;;;;;5073462;28;20199;-65
2022/06/14 12:49:20;;;;;;;15.70;11.73;;;6.30;99.90;;;;;;5079269;28;20183;-66
2022/06/14 12:51:56;;;;;;;19.17;11.27;;;6.30;99.90;;;;;;5076016;28;20183;-65
2022/06/14 12:54:36;;;;;;;20.40;11.27;;;6.20;99.90;;;;;;5094878;28;20206;-66
2022/06/14 12:57:33;;;;;;;14.77;11.00;;;6.10;99.90;;;;;;5093787;28;20699;-66
2022/06/14 13:00:01;;;;;;;17.93;12.00;;;6.10;99.90;;;;;;5087048;28;20191;-66
2022/06/14 13:02:41;;;;;;;24.30;10.87;;;6.10;99.90;;;;;;5074917;28;20277;-66
2022/06/14 13:05:12;;;;;;;20.90;11.50;;;6.00;99.90;;;;;;5093038;28;20270;-65
2022/06/14 13:07:49;;;;;;;18.13;9.67;;;6.00;99.90;;;;;;5093563;28;20174;-65
2022/06/14 13:10:38;;;;;;;16.53;10.03;;;5.90;99.90;;;;;;5093288;28;20202;-64
2022/06/14 13:13:40;;;;;;;15.20;9.80;;;6.00;99.90;;;;;;5094597;28;20218;-64
2022/06/14 13:16:38;;;;;;;17.87;10.43;;;6.00;99.90;;;;;;5093542;28;20502;-65
2022/06/14 13:19:22;;;;;;;14.83;9.30;;;6.00;99.90;;;;;;5093254;28;20576;-65
2022/06/14 13:22:10;;;;;;;17.27;9.47;;;6.00;99.90;;;;;;5093290;28;20179;-66
2022/06/14 13:25:04;;;;;;;18.53;9.67;;;6.10;99.90;;;;;;5092464;28;20216;-66
2022/06/14 13:27:44;;;;;;;15.53;10.27;;;6.10;99.90;;;;;;5092958;28;20554;-66
2022/06/14 13:30:21;;;;;;;14.33;10.20;;;6.30;99.90;;;;;;5093156;28;20182;-65
2022/06/14 13:32:51;;;;;;;14.83;10.47;;;6.20;99.90;;;;;;5092869;28;20267;-65
2022/06/14 13:35:45;;;;;;;16.47;10.20;;;6.20;99.90;;;;;;5092699;28;20179;-65
2022/06/14 13:38:34;;;;;;;12.47;10.07;;;6.10;99.90;;;;;;5092930;28;20183;-65
2022/06/14 13:41:11;;;;;;;18.37;10.53;;;6.10;99.90;;;;;;5092898;28;20186;-65
2022/06/14 13:44:04;;;;;;;15.03;10.57;;;6.00;99.90;;;;;;5093340;28;20171;-65
2022/06/14 13:47:00;;;;;;;15.30;10.40;;;5.90;99.90;;;;;;5092738;28;20194;-65
2022/06/14 13:49:43;;;;;;;19.03;9.93;;;5.80;99.90;;;;;;5086079;28;20659;-65
2022/06/14 13:52:22;;;;;;;13.17;9.33;;;5.80;99.90;;;;;;5092793;28;20616;-65
2022/06/14 13:55:00;;;;;;;11.30;8.80;;;5.70;99.90;;;;;;5092547;28;20186;-65
2022/06/14 13:57:42;;;;;;;16.03;8.87;;;5.60;99.90;;;;;;5092938;28;20644;-66
2022/06/14 14:00:29;;;;;;;14.17;9.50;;;5.60;99.90;;;;;;5092484;28;20267;-66
2022/06/14 14:03:03;;;;;;;14.50;8.80;;;5.50;99.90;;;;;;5092620;28;20182;-65
2022/06/14 14:06:17;;;;;;;18.00;10.00;;;5.70;99.90;;;;;;5092659;28;20698;-66
2022/06/14 14:08:54;;;;;;;11.03;8.70;;;5.80;99.90;;;;;;5030010;28;20215;-66
2022/06/14 14:11:40;;;;;;;11.03;7.37;;;5.90;99.90;;;;;;5084252;28;20226;-66
2022/06/14 14:14:26;;;;;;;12.97;8.97;;;5.80;99.90;;;;;;5092847;28;20664;-65
2022/06/14 14:17:14;;;;;;;11.77;8.60;;;5.70;99.90;;;;;;5092889;28;20179;-65